createdAt,value
2019-06-10T00:01:06.947Z,14.70
2019-06-10T00:03:35.151Z,14.71
2019-06-10T00:06:05.680Z,14.77
2019-06-10T00:08:35.257Z,14.79
2019-06-10T00:11:06.147Z,14.87
2019-06-10T00:13:35.664Z,14.77
2019-06-10T00:16:06.348Z,14.76
2019-06-10T00:18:42.080Z,14.65
2019-06-10T00:21:07.953Z,14.60
2019-06-10T00:23:37.554Z,14.55
2019-06-10T00:26:08.053Z,14.52
2019-06-10T00:28:37.505Z,14.53
2019-06-10T00:31:06.956Z,14.54
2019-06-10T00:33:36.329Z,14.56
2019-06-10T00:36:08.624Z,14.60
2019-06-10T00:38:36.686Z,14.56
2019-06-10T00:41:07.637Z,14.55
2019-06-10T00:43:37.112Z,14.58
2019-06-10T00:46:07.448Z,14.65
2019-06-10T00:48:37.472Z,14.58
2019-06-10T00:51:07.306Z,14.59
2019-06-10T00:53:36.739Z,14.55
2019-06-10T00:56:07.272Z,14.56
2019-06-10T00:58:40.742Z,14.58
2019-06-10T01:01:13.969Z,14.55
2019-06-10T01:03:41.642Z,14.52
2019-06-10T01:06:13.707Z,14.53
2019-06-10T01:08:41.723Z,14.56
2019-06-10T01:11:20.287Z,14.57
2019-06-10T01:13:43.349Z,14.58
2019-06-10T01:16:15.230Z,14.65
2019-06-10T01:18:44.129Z,14.65
2019-06-10T01:21:14.244Z,14.67
2019-06-10T01:23:44.491Z,14.62
2019-06-10T01:26:16.279Z,14.49
2019-06-10T01:28:45.101Z,14.40
2019-06-10T01:31:20.508Z,14.38
2019-06-10T01:33:45.666Z,14.25
2019-06-10T01:36:18.813Z,14.23
2019-06-10T01:38:51.187Z,14.14
2019-06-10T01:41:21.337Z,14.12
2019-06-10T01:43:51.487Z,14.04
2019-06-10T01:46:21.260Z,13.96
2019-06-10T01:48:52.173Z,13.92
2019-06-10T01:51:24.881Z,13.92
2019-06-10T01:53:54.181Z,13.95
2019-06-10T01:56:23.541Z,14.03
2019-06-10T01:58:52.857Z,14.05
2019-06-10T02:01:46.822Z,14.08
2019-06-10T02:04:18.217Z,14.13
2019-06-10T02:06:51.103Z,14.18
2019-06-10T02:09:23.106Z,14.20
2019-06-10T02:11:51.928Z,14.35
2019-06-10T02:14:24.170Z,14.29
2019-06-10T02:16:53.096Z,14.25
2019-06-10T02:19:23.433Z,14.34
2019-06-10T02:21:52.579Z,14.35
2019-06-10T02:24:23.588Z,14.36
2019-06-10T02:26:53.369Z,14.36
2019-06-10T02:29:23.624Z,14.35
2019-06-10T02:31:52.948Z,14.36
2019-06-10T02:34:27.148Z,14.32
2019-06-10T02:36:53.796Z,14.32
2019-06-10T02:39:32.313Z,14.32
2019-06-10T02:41:58.132Z,14.27
2019-06-10T02:44:33.099Z,14.25
2019-06-10T02:46:59.611Z,14.24
2019-06-10T02:49:46.584Z,14.21
2019-06-10T02:52:03.675Z,14.17
2019-06-10T02:54:35.932Z,14.19
2019-06-10T02:57:04.569Z,14.19
2019-06-10T02:59:36.422Z,14.13
2019-06-10T03:02:05.223Z,14.12
2019-06-10T03:04:37.637Z,14.15
2019-06-10T03:07:08.487Z,14.14
2019-06-10T03:09:38.835Z,14.08
2019-06-10T03:12:08.232Z,14.09
2019-06-10T03:14:37.849Z,14.08
2019-06-10T03:17:12.475Z,14.03
2019-06-10T03:19:50.129Z,14.06
2019-06-10T03:22:14.042Z,14.08
2019-06-10T03:24:43.071Z,14.14
2019-06-10T03:27:12.670Z,14.11
2019-06-10T03:29:42.175Z,14.10
2019-06-10T03:32:15.182Z,14.08
2019-06-10T03:34:47.383Z,14.15
2019-06-10T03:37:14.351Z,14.12
2019-06-10T03:39:43.363Z,14.12
2019-06-10T03:42:12.757Z,14.10
2019-06-10T03:44:43.081Z,14.04
2019-06-10T03:47:12.842Z,14.02
2019-06-10T03:49:52.418Z,13.97
2019-06-10T03:52:13.097Z,13.98
2019-06-10T03:54:43.278Z,13.94
2019-06-10T03:57:12.519Z,13.94
2019-06-10T03:59:42.238Z,13.93
2019-06-10T04:02:12.805Z,13.98
2019-06-10T04:04:42.937Z,14.01
2019-06-10T04:07:14.232Z,14.05
2019-06-10T04:09:43.365Z,14.15
2019-06-10T04:12:12.911Z,14.17
2019-06-10T04:14:42.155Z,14.18
2019-06-10T04:17:13.045Z,14.22
2019-06-10T04:19:42.607Z,14.29
2019-06-10T04:22:13.044Z,14.28
2019-06-10T04:24:43.137Z,14.29
2019-06-10T04:27:12.371Z,14.29
2019-06-10T04:29:42.243Z,14.35
2019-06-10T04:32:12.273Z,14.47
2019-06-10T04:34:43.335Z,14.61
2019-06-10T04:37:12.712Z,14.74
2019-06-10T04:39:42.771Z,14.89
2019-06-10T04:42:13.045Z,15.06
2019-06-10T04:44:42.583Z,15.14
2019-06-10T04:47:12.137Z,15.15
2019-06-10T04:49:42.865Z,15.27
2019-06-10T04:52:12.445Z,15.45
2019-06-10T04:54:42.120Z,15.49
2019-06-10T04:57:12.810Z,15.44
2019-06-10T04:59:42.983Z,15.44
2019-06-10T05:02:12.894Z,15.49
2019-06-10T05:04:42.630Z,15.49
2019-06-10T05:07:12.595Z,15.51
2019-06-10T05:09:42.215Z,15.51
2019-06-10T05:12:12.193Z,15.48
2019-06-10T05:14:43.258Z,15.41
2019-06-10T05:17:12.799Z,15.44
2019-06-10T05:19:42.925Z,15.41
2019-06-10T05:22:12.470Z,15.42
2019-06-10T05:24:42.395Z,15.47
2019-06-10T05:27:12.529Z,15.52
2019-06-10T05:29:42.270Z,15.46
2019-06-10T05:32:12.769Z,15.50
2019-06-10T05:34:43.676Z,15.65
2019-06-10T05:37:13.038Z,15.59
2019-06-10T05:39:43.124Z,15.67
2019-06-10T05:42:13.347Z,15.80
2019-06-10T05:44:43.068Z,15.86
2019-06-10T05:47:12.765Z,15.84
2019-06-10T05:49:43.077Z,15.87
2019-06-10T05:52:12.663Z,15.90
2019-06-10T05:54:43.111Z,15.89
2019-06-10T05:57:12.578Z,15.76
2019-06-10T05:59:43.254Z,15.81
2019-06-10T06:02:12.945Z,15.86
2019-06-10T06:04:42.807Z,15.85
2019-06-10T06:07:12.856Z,15.89
2019-06-10T06:09:42.750Z,15.87
2019-06-10T06:12:14.270Z,16.05
2019-06-10T06:14:43.295Z,16.13
2019-06-10T06:17:12.807Z,16.17
2019-06-10T06:19:43.475Z,16.15
2019-06-10T06:22:13.068Z,16.08
2019-06-10T06:24:42.760Z,16.09
2019-06-10T06:27:13.098Z,15.92
2019-06-10T06:29:43.236Z,15.90
2019-06-10T06:32:13.201Z,15.77
2019-06-10T06:34:43.179Z,15.80
2019-06-10T06:37:12.818Z,15.86
2019-06-10T06:39:42.967Z,15.83
2019-06-10T06:42:12.925Z,15.94
2019-06-10T06:44:43.353Z,15.89
2019-06-10T06:47:13.287Z,15.93
2019-06-10T06:49:43.190Z,15.97
2019-06-10T06:52:13.011Z,15.92
2019-06-10T06:54:42.556Z,15.91
2019-06-10T06:57:13.088Z,15.81
2019-06-10T06:59:43.204Z,15.73
2019-06-10T07:02:12.822Z,15.81
2019-06-10T07:04:43.296Z,15.83
2019-06-10T07:07:13.406Z,15.88
2019-06-10T07:09:43.527Z,15.98
2019-06-10T07:12:13.135Z,16.04
2019-06-10T07:14:44.990Z,16.05
2019-06-10T07:17:14.406Z,16.25
2019-06-10T07:19:45.750Z,16.49
2019-06-10T07:22:16.333Z,16.64
2019-06-10T07:24:47.492Z,16.77
2019-06-10T07:27:16.597Z,17.03
2019-06-10T07:29:47.339Z,17.14
2019-06-10T07:32:18.064Z,17.47
2019-06-10T07:34:47.346Z,17.84
2019-06-10T07:37:17.040Z,18.02
2019-06-10T07:39:46.304Z,18.09
2019-06-10T07:42:16.299Z,18.27
2019-06-10T07:44:46.238Z,18.38
2019-06-10T07:47:15.813Z,18.28
2019-06-10T07:49:45.662Z,18.46
2019-06-10T07:52:19.827Z,18.52
2019-06-10T07:54:46.812Z,18.59
2019-06-10T07:57:16.290Z,18.62
2019-06-10T07:59:46.156Z,18.26
2019-06-10T08:02:15.537Z,18.36
2019-06-10T08:04:46.005Z,18.39
2019-06-10T08:07:15.448Z,18.56
2019-06-10T08:09:45.803Z,18.35
2019-06-10T08:12:16.158Z,18.38
2019-06-10T08:14:45.771Z,18.73
2019-06-10T08:17:15.359Z,18.75
2019-06-10T08:19:49.633Z,18.82
2019-06-10T08:22:29.860Z,19.17
2019-06-10T08:24:48.445Z,19.22
2019-06-10T08:27:18.092Z,19.00
2019-06-10T08:29:49.660Z,19.04
2019-06-10T08:32:19.097Z,18.82
2019-06-10T08:34:48.327Z,18.85
2019-06-10T08:37:18.270Z,18.93
2019-06-10T08:39:48.099Z,19.05
2019-06-10T08:42:17.519Z,18.86
2019-06-10T08:44:48.615Z,18.69
2019-06-10T08:47:18.044Z,18.71
2019-06-10T08:49:49.038Z,18.44
2019-06-10T08:52:19.194Z,18.17
2019-06-10T08:54:51.094Z,18.14
2019-06-10T08:57:23.238Z,18.21
2019-06-10T08:59:53.319Z,18.26
2019-06-10T09:02:23.036Z,18.32
2019-06-10T09:04:53.986Z,18.14
2019-06-10T09:07:23.953Z,18.13
2019-06-10T09:09:54.132Z,17.95
2019-06-10T09:12:32.915Z,17.82
2019-06-10T09:14:54.993Z,17.62
2019-06-10T09:17:24.486Z,17.38
2019-06-10T09:19:54.273Z,17.52
2019-06-10T09:22:24.189Z,17.51
2019-06-10T09:24:56.375Z,17.30
2019-06-10T09:27:26.984Z,17.17
2019-06-10T09:29:55.981Z,17.14
2019-06-10T09:32:25.306Z,17.04
2019-06-10T09:34:57.475Z,16.84
2019-06-10T09:37:25.137Z,16.70
2019-06-10T09:39:59.470Z,16.52
2019-06-10T09:42:25.212Z,16.35
2019-06-10T09:44:55.651Z,16.24
2019-06-10T09:47:25.166Z,16.14
2019-06-10T09:49:55.748Z,16.06
2019-06-10T09:52:25.444Z,15.94
2019-06-10T09:54:56.700Z,15.90
2019-06-10T09:57:28.731Z,15.82
2019-06-10T09:59:57.809Z,15.67
2019-06-10T10:02:26.887Z,15.59
2019-06-10T10:04:58.369Z,15.75
2019-06-10T10:07:27.324Z,15.82
2019-06-10T10:09:57.422Z,16.13
2019-06-10T10:12:26.511Z,16.41
2019-06-10T10:14:56.528Z,17.09
2019-06-10T10:17:25.787Z,17.86
2019-06-10T10:19:56.998Z,18.20
2019-06-10T10:22:25.988Z,18.61
2019-06-10T10:24:56.762Z,20.25
2019-06-10T10:27:25.924Z,20.28
2019-06-10T10:29:57.889Z,20.01
2019-06-10T10:32:27.296Z,19.84
2019-06-10T10:34:56.641Z,19.86
2019-06-10T10:37:25.808Z,20.18
2019-06-10T10:39:56.544Z,20.19
2019-06-10T10:42:39.127Z,20.44
2019-06-10T10:44:59.043Z,20.73
2019-06-10T10:47:27.982Z,20.14
2019-06-10T10:49:57.207Z,20.32
2019-06-10T10:52:26.561Z,20.13
2019-06-10T10:54:55.892Z,20.59
2019-06-10T10:57:25.439Z,21.01
2019-06-10T10:59:56.210Z,20.96
2019-06-10T11:02:25.717Z,21.17
2019-06-10T11:04:57.005Z,21.35
2019-06-10T11:07:25.942Z,21.39
2019-06-10T11:09:56.879Z,21.97
2019-06-10T11:12:26.344Z,22.94
2019-06-10T11:15:00.445Z,22.13
2019-06-10T11:17:33.461Z,21.90
2019-06-10T11:20:03.823Z,21.22
2019-06-10T11:22:33.355Z,20.24
2019-06-10T11:25:02.517Z,20.45
2019-06-10T11:27:33.136Z,20.73
2019-06-10T11:30:02.782Z,20.35
2019-06-10T11:32:33.755Z,19.94
2019-06-10T11:35:03.141Z,20.14
2019-06-10T11:37:32.978Z,19.34
2019-06-10T11:40:02.872Z,19.19
2019-06-10T11:42:34.328Z,19.35
2019-06-10T11:45:03.655Z,19.26
2019-06-10T11:47:33.220Z,19.32
2019-06-10T11:50:03.433Z,19.27
2019-06-10T11:52:33.623Z,19.42
2019-06-10T11:55:14.330Z,19.42
2019-06-10T11:57:34.381Z,19.57
2019-06-10T12:00:13.663Z,19.85
2019-06-10T12:02:36.070Z,20.04
2019-06-10T12:05:05.511Z,20.27
2019-06-10T12:07:35.037Z,19.93
2019-06-10T12:10:05.247Z,19.83
2019-06-10T12:12:34.469Z,19.66
2019-06-10T12:15:03.799Z,19.89
2019-06-10T12:17:43.094Z,19.68
2019-06-10T12:20:05.565Z,19.28
2019-06-10T12:22:34.829Z,19.42
2019-06-10T12:25:28.491Z,19.58
2019-06-10T12:27:37.654Z,19.42
2019-06-10T12:30:07.955Z,19.30
2019-06-10T12:32:37.636Z,19.50
2019-06-10T12:35:07.807Z,20.44
2019-06-10T12:37:37.626Z,20.76
2019-06-10T12:40:07.081Z,21.29
2019-06-10T12:42:37.182Z,21.48
2019-06-10T12:45:12.760Z,22.34
2019-06-10T12:47:42.517Z,22.88
2019-06-10T12:50:14.809Z,22.96
2019-06-10T12:52:44.014Z,22.83
2019-06-10T12:55:14.494Z,23.45
2019-06-10T12:57:43.863Z,24.05
2019-06-10T13:00:20.366Z,24.57
2019-06-10T13:02:45.143Z,25.12
2019-06-10T13:05:14.371Z,24.11
2019-06-10T13:07:44.535Z,23.27
2019-06-10T13:10:16.419Z,23.27
2019-06-10T13:12:48.935Z,23.01
2019-06-10T13:15:18.570Z,22.61
2019-06-10T13:17:47.755Z,21.72
2019-06-10T13:20:17.134Z,21.33
2019-06-10T13:22:46.182Z,21.46
2019-06-10T13:25:15.253Z,21.67
2019-06-10T13:27:44.275Z,21.62
2019-06-10T13:30:13.355Z,21.66
2019-06-10T13:32:43.536Z,22.03
2019-06-10T13:35:12.921Z,22.78
2019-06-10T13:37:42.889Z,23.10
2019-06-10T13:40:13.124Z,22.70
2019-06-10T13:42:42.489Z,21.99
2019-06-10T13:45:12.791Z,21.68
2019-06-10T13:47:43.025Z,21.82
2019-06-10T13:50:14.512Z,21.66
2019-06-10T13:52:44.128Z,21.09
2019-06-10T13:55:13.786Z,20.99
2019-06-10T13:57:44.897Z,20.89
2019-06-10T14:00:16.360Z,20.97
2019-06-10T14:02:45.842Z,20.58
2019-06-10T14:05:18.186Z,20.74
2019-06-10T14:07:46.077Z,21.48
2019-06-10T14:10:18.152Z,22.29
2019-06-10T14:12:48.992Z,22.71
2019-06-10T14:15:18.041Z,23.28
2019-06-10T14:17:47.236Z,23.22
2019-06-10T14:20:17.281Z,22.64
2019-06-10T14:22:46.696Z,22.15
2019-06-10T14:25:16.846Z,22.13
2019-06-10T14:27:46.205Z,22.71
2019-06-10T14:30:15.704Z,23.04
2019-06-10T14:32:44.747Z,23.42
2019-06-10T14:35:17.230Z,23.16
2019-06-10T14:37:44.592Z,23.08
2019-06-10T14:40:20.846Z,22.46
2019-06-10T14:42:45.334Z,22.37
2019-06-10T14:45:16.605Z,22.09
2019-06-10T14:47:45.659Z,22.24
2019-06-10T14:50:17.306Z,21.84
2019-06-10T14:52:45.807Z,21.35
2019-06-10T14:55:18.373Z,21.56
2019-06-10T14:57:45.919Z,21.45
2019-06-10T15:00:17.958Z,21.62
2019-06-10T15:02:46.253Z,21.25
2019-06-10T15:05:17.092Z,21.48
2019-06-10T15:07:46.791Z,21.84
2019-06-10T15:10:17.846Z,22.01
2019-06-10T15:12:47.358Z,21.95
2019-06-10T15:15:17.708Z,22.20
2019-06-10T15:17:47.066Z,22.38
2019-06-10T15:20:17.057Z,22.59
2019-06-10T15:22:46.422Z,22.69
2019-06-10T15:25:17.726Z,22.77
2019-06-10T15:27:46.902Z,22.62
2019-06-10T15:30:23.498Z,22.39
2019-06-10T15:32:46.881Z,22.41
2019-06-10T15:35:18.637Z,22.29
2019-06-10T15:37:46.757Z,22.22
2019-06-10T15:40:17.030Z,22.07
2019-06-10T15:42:46.975Z,21.68
2019-06-10T15:45:19.448Z,21.72
2019-06-10T15:47:48.860Z,21.20
2019-06-10T15:50:19.083Z,21.12
2019-06-10T15:52:48.138Z,21.01
2019-06-10T15:55:46.622Z,20.77
2019-06-10T15:57:49.752Z,20.74
2019-06-10T16:00:22.325Z,20.51
2019-06-10T16:02:50.833Z,20.19
2019-06-10T16:05:21.234Z,20.42
2019-06-10T16:07:52.998Z,20.24
2019-06-10T16:10:27.087Z,19.82
2019-06-10T16:12:53.706Z,20.05
2019-06-10T16:15:26.093Z,19.91
2019-06-10T16:17:54.686Z,19.87
2019-06-10T16:20:24.348Z,19.98
2019-06-10T16:22:56.246Z,20.19
2019-06-10T16:25:26.628Z,20.24
2019-06-10T16:27:56.160Z,20.19
2019-06-10T16:30:26.055Z,20.05
2019-06-10T16:32:55.724Z,20.04
2019-06-10T16:35:26.736Z,19.97
2019-06-10T16:37:56.942Z,20.36
2019-06-10T16:40:27.312Z,20.33
2019-06-10T16:42:56.822Z,20.05
2019-06-10T16:45:30.311Z,19.78
2019-06-10T16:47:57.090Z,19.97
2019-06-10T16:50:27.444Z,19.85
2019-06-10T16:52:56.552Z,19.52
2019-06-10T16:55:27.099Z,19.33
2019-06-10T16:57:59.614Z,19.21
2019-06-10T17:00:27.781Z,19.16
2019-06-10T17:02:56.795Z,18.97
2019-06-10T17:05:27.616Z,19.15
2019-06-10T17:07:57.281Z,19.03
2019-06-10T17:10:28.158Z,18.96
2019-06-10T17:13:03.284Z,18.77
2019-06-10T17:15:33.092Z,18.67
2019-06-10T17:18:02.913Z,18.62
2019-06-10T17:20:34.170Z,18.57
2019-06-10T17:23:26.646Z,18.73
2019-06-10T17:25:57.396Z,19.06
2019-06-10T17:28:31.656Z,18.73
2019-06-10T17:30:58.885Z,18.89
2019-06-10T17:33:30.501Z,19.03
2019-06-10T17:35:59.324Z,18.59
2019-06-10T17:38:29.057Z,18.74
2019-06-10T17:40:58.728Z,18.67
2019-06-10T17:43:29.362Z,18.54
2019-06-10T17:45:59.266Z,18.30
2019-06-10T17:48:29.202Z,18.23
2019-06-10T17:50:58.906Z,18.18
2019-06-10T17:53:28.228Z,18.27
2019-06-10T17:55:57.398Z,18.33
2019-06-10T17:58:40.537Z,18.28
2019-06-10T18:00:57.308Z,18.11
2019-06-10T18:03:27.899Z,17.89
2019-06-10T18:05:58.235Z,17.86
2019-06-10T18:08:27.706Z,17.84
2019-06-10T18:10:56.850Z,17.83
2019-06-10T18:13:26.316Z,17.79
2019-06-10T18:15:55.631Z,17.77
2019-06-10T18:18:26.327Z,17.79
2019-06-10T18:20:55.599Z,17.81
2019-06-10T18:23:24.962Z,17.77
2019-06-10T18:25:55.834Z,17.76
2019-06-10T18:28:25.016Z,17.54
2019-06-10T18:30:54.101Z,17.58
2019-06-10T18:33:23.322Z,17.36
2019-06-10T18:35:53.270Z,17.39
2019-06-10T18:38:22.915Z,17.50
2019-06-10T18:40:53.646Z,17.34
2019-06-10T18:43:23.245Z,17.27
2019-06-10T18:45:53.324Z,17.10
2019-06-10T18:48:23.417Z,17.19
2019-06-10T18:50:53.418Z,17.44
2019-06-10T18:53:23.887Z,17.37
2019-06-10T18:55:54.838Z,17.33
2019-06-10T18:58:23.960Z,17.31
2019-06-10T19:01:03.395Z,17.35
2019-06-10T19:03:25.130Z,17.38
2019-06-10T19:05:54.516Z,17.36
2019-06-10T19:08:23.762Z,17.40
2019-06-10T19:10:53.861Z,17.25
2019-06-10T19:13:23.234Z,17.04
2019-06-10T19:15:53.301Z,17.05
2019-06-10T19:18:23.720Z,17.08
2019-06-10T19:20:53.582Z,17.12
2019-06-10T19:23:23.955Z,17.19
2019-06-10T19:25:53.761Z,17.01
2019-06-10T19:28:23.430Z,17.22
2019-06-10T19:30:53.487Z,17.20
2019-06-10T19:33:23.830Z,17.11
2019-06-10T19:35:54.934Z,17.05
2019-06-10T19:38:24.229Z,16.90
2019-06-10T19:40:56.687Z,16.79
2019-06-10T19:43:25.820Z,16.96
2019-06-10T19:45:54.840Z,17.06
2019-06-10T19:48:23.901Z,16.91
2019-06-10T19:50:53.905Z,16.84
2019-06-10T19:53:23.292Z,16.76
2019-06-10T19:55:53.287Z,16.81
2019-06-10T19:58:23.314Z,16.85
2019-06-10T20:00:54.397Z,16.96
2019-06-10T20:03:23.686Z,16.69
2019-06-10T20:05:53.580Z,16.86
2019-06-10T20:08:22.876Z,16.73
2019-06-10T20:10:53.221Z,16.67
2019-06-10T20:13:23.302Z,16.58
2019-06-10T20:15:52.674Z,16.42
2019-06-10T20:18:22.674Z,16.54
2019-06-10T20:20:53.997Z,16.47
2019-06-10T20:23:22.951Z,16.26
2019-06-10T20:25:52.705Z,16.19
2019-06-10T20:28:22.504Z,16.16
2019-06-10T20:30:52.985Z,16.20
2019-06-10T20:33:36.984Z,16.21
2019-06-10T20:36:08.024Z,16.26
2019-06-10T20:38:38.245Z,16.20
2019-06-10T20:41:07.732Z,15.94
2019-06-10T20:43:37.381Z,15.95
2019-06-10T20:46:06.730Z,15.85
2019-06-10T20:48:35.738Z,15.48
2019-06-10T20:51:05.386Z,15.60
2019-06-10T20:53:34.620Z,15.63
2019-06-10T20:56:05.027Z,15.56
2019-06-10T20:58:34.706Z,15.25
2019-06-10T21:01:04.900Z,15.29
2019-06-10T21:03:34.479Z,15.16
2019-06-10T21:06:05.028Z,15.13
2019-06-10T21:08:34.458Z,15.22
2019-06-10T21:11:04.219Z,14.90
2019-06-10T21:13:33.648Z,15.01
2019-06-10T21:16:03.741Z,14.91
2019-06-10T21:18:35.151Z,14.92
2019-06-10T21:21:04.287Z,14.95
2019-06-10T21:23:34.162Z,14.91
2019-06-10T21:26:03.957Z,14.93
2019-06-10T21:28:33.374Z,14.97
2019-06-10T21:31:03.227Z,14.77
2019-06-10T21:33:33.512Z,14.49
2019-06-10T21:36:05.994Z,14.45
2019-06-10T21:38:35.380Z,14.33
2019-06-10T21:41:04.738Z,14.26
2019-06-10T21:43:33.906Z,14.07
2019-06-10T21:46:04.074Z,13.98
2019-06-10T21:48:33.186Z,13.75
2019-06-10T21:51:02.433Z,13.75
2019-06-10T21:53:31.843Z,13.73
2019-06-10T21:56:01.762Z,13.66
2019-06-10T21:58:32.790Z,13.68
2019-06-10T22:01:12.432Z,13.59
2019-06-10T22:03:34.045Z,13.69
2019-06-10T22:06:03.474Z,13.47
2019-06-10T22:08:33.725Z,13.48
2019-06-10T22:11:03.943Z,13.16
2019-06-10T22:13:33.076Z,13.34
2019-06-10T22:16:03.394Z,13.22
2019-06-10T22:18:32.769Z,13.26
2019-06-10T22:21:02.867Z,13.33
2019-06-10T22:23:33.089Z,13.47
2019-06-10T22:26:02.885Z,13.32
2019-06-10T22:28:32.839Z,13.19
2019-06-10T22:31:18.116Z,12.99
2019-06-10T22:33:34.543Z,13.09
2019-06-10T22:36:04.602Z,12.90
2019-06-10T22:38:34.789Z,12.79
2019-06-10T22:41:04.089Z,12.68
2019-06-10T22:43:33.912Z,12.63
2019-06-10T22:46:04.019Z,12.70
2019-06-10T22:48:33.454Z,12.80
2019-06-10T22:51:03.193Z,12.56
2019-06-10T22:53:33.350Z,12.83
2019-06-10T22:56:05.367Z,12.73
2019-06-10T22:58:34.909Z,12.62
2019-06-10T23:01:04.506Z,12.52
2019-06-10T23:03:36.830Z,12.49
2019-06-10T23:06:07.018Z,12.19
2019-06-10T23:08:36.282Z,12.01
2019-06-10T23:11:05.739Z,11.86
2019-06-10T23:13:35.252Z,11.84
2019-06-10T23:16:04.397Z,11.93
2019-06-10T23:18:33.576Z,12.12
2019-06-10T23:21:04.435Z,12.21
2019-06-10T23:23:34.443Z,12.30
2019-06-10T23:26:04.003Z,12.09
2019-06-10T23:28:33.295Z,12.16
2019-06-10T23:31:05.598Z,12.11
2019-06-10T23:33:34.898Z,12.01
2019-06-10T23:36:04.747Z,12.15
2019-06-10T23:38:34.245Z,12.04
2019-06-10T23:41:03.921Z,12.12
2019-06-10T23:43:33.645Z,12.38
2019-06-10T23:46:04.293Z,12.37
2019-06-10T23:48:33.815Z,12.33
2019-06-10T23:51:05.075Z,12.22
2019-06-10T23:53:34.624Z,12.08
2019-06-10T23:56:05.012Z,12.22
2019-06-10T23:58:34.344Z,12.40
